Time;durP1;ratioP1;P1;durP2;ratioP2;P2;SDS_P1;SDS_P2;PMS_P1;PMS_P2;Temp;Humidity;BMP_temperature;BMP_pressure;BME280_temperature;BME280_humidity;BME280_pressure;Samples;Min_cycle;Max_cycle;Signal;HPM_P1;HPM_P2
2021/08/14 00:00:01;;;;;;;15.85;9.75;;;;;;;16.92;82.57;91601.91;5042921;28;20480;-85
2021/08/14 00:02:37;;;;;;;16.27;10.23;;;;;;;16.90;82.82;91596.25;5042819;28;20092;-84
2021/08/14 00:05:11;;;;;;;18.52;11.15;;;;;;;16.92;83.27;91596.66;5043370;28;20025;-85
2021/08/14 00:07:45;;;;;;;;;;;;;;;16.84;83.40;91595.78;5059565;28;20029;-85
2021/08/14 00:10:30;;;;;;;15.13;10.50;;;;;;;16.86;82.75;91590.94;5058437;28;19908;-86
2021/08/14 00:13:04;;;;;;;18.25;10.48;;;;;;;16.89;82.41;91594.72;5059023;28;20021;-85
2021/08/14 00:15:41;;;;;;;15.70;10.40;;;;;;;16.84;82.54;91593.13;5059043;28;20064;-86
2021/08/14 00:18:19;;;;;;;19.38;10.90;;;;;;;16.82;83.13;91589.31;5059273;28;20029;-84
2021/08/14 00:21:02;;;;;;;16.48;10.00;;;;;;;16.71;83.27;91582.00;5059423;28;20024;-84
2021/08/14 00:23:38;;;;;;;16.40;10.35;;;;;;;16.76;83.29;91580.22;5044588;28;20448;-86
2021/08/14 00:26:16;;;;;;;17.38;10.73;;;;;;;16.70;83.17;91580.47;5059634;28;20029;-85
2021/08/14 00:28:55;;;;;;;17.17;10.60;;;;;;;16.68;83.31;91585.31;5044969;28;20017;-84
2021/08/14 00:31:34;;;;;;;15.80;9.75;;;;;;;16.66;83.08;91582.25;5061258;28;20032;-86
2021/08/14 00:34:05;;;;;;;15.60;10.40;;;;;;;16.61;83.13;91585.19;5044458;28;20060;-86
2021/08/14 00:36:38;;;;;;;16.48;10.32;;;;;;;16.52;83.18;91576.75;5060408;28;20025;-85
2021/08/14 00:39:16;;;;;;;18.02;9.85;;;;;;;16.57;83.22;91581.75;5060217;28;20017;-86
2021/08/14 00:41:58;;;;;;;20.48;9.95;;;;;;;16.62;82.63;91578.06;5044077;28;20108;-85
2021/08/14 00:44:33;;;;;;;16.90;10.45;;;;;;;16.44;82.88;91572.47;5060988;28;20037;-86
2021/08/14 00:47:14;;;;;;;16.65;9.60;;;;;;;16.46;82.27;91576.25;5060127;28;20021;-86
2021/08/14 00:49:53;;;;;;;17.60;9.57;;;;;;;16.38;82.47;91581.75;5057740;28;20456;-86
2021/08/14 00:52:28;;;;;;;13.40;9.90;;;;;;;16.27;82.57;91568.38;5050630;28;20025;-84
2021/08/14 00:55:03;;;;;;;17.25;9.73;;;;;;;16.26;82.58;91566.88;5047134;28;20611;-86
2021/08/14 00:57:36;;;;;;;;;;;;;;;16.16;83.04;91578.69;5036039;28;20025;-84
2021/08/14 01:00:16;;;;;;;14.35;9.52;;;;;;;16.08;83.06;91577.03;5035023;28;19999;-86
2021/08/14 01:02:47;;;;;;;16.50;9.88;;;;;;;15.97;83.33;91568.16;5035401;28;20100;-84
2021/08/14 01:05:21;;;;;;;14.82;10.15;;;;;;;15.93;82.94;91560.19;5018577;28;20021;-86
2021/08/14 01:07:50;;;;;;;;;;;;;;;15.99;83.57;91571.97;5036221;28;20037;-84
2021/08/14 01:10:26;;;;;;;18.83;9.90;;;;;;;15.97;84.07;91560.28;5034441;28;19909;-84
2021/08/14 01:13:02;;;;;;;16.40;10.07;;;;;;;16.02;84.08;91567.91;5034654;28;20428;-84
2021/08/14 01:15:39;;;;;;;16.63;9.75;;;;;;;15.95;84.01;91565.13;5019272;28;20029;-84
2021/08/14 01:18:16;;;;;;;15.27;9.90;;;;;;;15.94;83.98;91566.25;5018813;28;20051;-86
2021/08/14 01:20:51;;;;;;;16.95;10.43;;;;;;;15.94;84.07;91567.00;5034446;28;20021;-84
2021/08/14 01:23:29;;;;;;;20.08;10.20;;;;;;;15.92;83.96;91558.69;5019230;28;20025;-84
2021/08/14 01:26:09;;;;;;;17.05;10.13;;;;;;;15.92;84.20;91557.94;5041308;28;20029;-84
2021/08/14 01:28:47;;;;;;;18.40;10.13;;;;;;;15.92;84.46;91563.94;5038769;28;20052;-84
2021/08/14 01:31:32;;;;;;;17.65;10.55;;;;;;;15.97;84.76;91560.28;5053717;28;20503;-84
2021/08/14 01:34:05;;;;;;;17.88;10.02;;;;;;;15.96;85.06;91551.63;5057697;28;20013;-87
2021/08/14 01:36:38;;;;;;;16.85;10.05;;;;;;;15.99;85.67;91553.56;5043781;28;20064;-84
2021/08/14 01:39:16;;;;;;;14.25;10.10;;;;;;;16.00;86.08;91555.09;5056478;28;20024;-83
2021/08/14 01:42:05;;;;;;;14.40;10.63;;;;;;;16.04;85.53;91555.16;5039725;28;20111;-84
2021/08/14 01:44:44;;;;;;;14.82;10.40;;;;;;;16.02;85.97;91552.13;5056724;28;20033;-84
2021/08/14 01:47:19;;;;;;;17.30;10.30;;;;;;;16.14;85.64;91556.47;5038817;28;20060;-85
2021/08/14 01:49:56;;;;;;;14.73;9.48;;;;;;;16.14;84.07;91559.09;5038721;28;20059;-85
2021/08/14 01:52:32;;;;;;;13.23;9.35;;;;;;;16.10;83.70;91553.78;5055950;28;20045;-85
2021/08/14 01:55:07;;;;;;;18.42;10.20;;;;;;;16.01;83.91;91550.63;5057485;28;20025;-84
2021/08/14 01:57:44;;;;;;;16.42;9.98;;;;;;;16.01;84.96;91551.38;5055008;28;20017;-84
2021/08/14 02:00:20;;;;;;;19.95;10.93;;;;;;;16.00;85.32;91547.19;5056568;28;20040;-85
2021/08/14 02:02:58;;;;;;;14.77;9.77;;;;;;;15.94;84.93;91545.22;5055698;28;20594;-85
2021/08/14 02:05:31;;;;;;;15.35;9.85;;;;;;;16.07;83.93;91548.44;5040448;28;20053;-85
2021/08/14 02:08:09;;;;;;;16.88;9.93;;;;;;;15.95;83.48;91542.22;5054554;28;20021;-86
2021/08/14 02:10:44;;;;;;;14.65;9.98;;;;;;;15.88;83.71;91547.34;5053850;28;20033;-84
2021/08/14 02:13:13;;;;;;;16.80;10.52;;;;;;;15.85;84.69;91549.91;5055608;28;20092;-83
2021/08/14 02:15:48;;;;;;;18.85;10.95;;;;;;;15.87;84.06;91542.44;5039396;28;20025;-84
2021/08/14 02:18:31;;;;;;;17.10;10.23;;;;;;;15.86;83.73;91541.66;5056038;28;20021;-84
2021/08/14 02:21:08;;;;;;;17.55;10.57;;;;;;;15.80;83.74;91534.41;5057620;28;20107;-86
2021/08/14 02:23:46;;;;;;;21.20;10.50;;;;;;;15.76;83.94;91534.34;5055827;28;20374;-85
2021/08/14 02:26:22;;;;;;;19.33;10.20;;;;;;;15.72;84.34;91533.47;5052001;28;20029;-85
2021/08/14 02:28:58;;;;;;;20.63;10.38;;;;;;;15.79;84.26;91533.63;5052688;28;20065;-87
2021/08/14 02:31:37;;;;;;;14.25;10.10;;;;;;;15.78;85.04;91527.63;5036972;28;20040;-85
2021/08/14 02:34:12;;;;;;;14.48;10.65;;;;;;;15.70;85.11;91528.59;5019944;28;20489;-85
2021/08/14 02:36:48;;;;;;;19.30;10.02;;;;;;;15.75;85.24;91536.19;5035377;28;20112;-83
2021/08/14 02:39:28;;;;;;;17.50;10.43;;;;;;;15.65;84.52;91534.06;5020195;28;20045;-86
2021/08/14 02:42:05;;;;;;;17.27;10.73;;;;;;;15.62;85.61;91524.25;5035938;28;20029;-85
2021/08/14 02:44:43;;;;;;;19.80;10.63;;;;;;;15.72;85.16;91529.00;5021140;28;20036;-85
2021/08/14 02:47:19;;;;;;;16.85;10.00;;;;;;;15.73;86.00;91527.91;5019943;28;20478;-83
2021/08/14 02:49:54;;;;;;;20.30;10.57;;;;;;;15.63;86.02;91531.03;5019644;28;20033;-86
2021/08/14 02:52:28;;;;;;;14.48;9.75;;;;;;;15.59;85.82;91530.19;5036823;28;20059;-86
2021/08/14 02:55:03;;;;;;;17.35;10.18;;;;;;;15.51;86.04;91526.66;5036700;28;20025;-86
2021/08/14 02:57:37;;;;;;;17.98;9.95;;;;;;;15.49;85.73;91530.72;5037354;28;20527;-86
2021/08/14 03:00:08;;;;;;;;;;;;;;;15.44;85.43;91528.34;5037195;28;20112;-86
2021/08/14 03:02:45;;;;;;;16.92;9.70;;;;;;;15.43;85.02;91530.22;5039395;28;19913;-85
2021/08/14 03:05:31;;;;;;;16.15;9.82;;;;;;;15.34;85.54;91523.66;5022050;28;20029;-86
2021/08/14 03:08:06;;;;;;;14.20;9.70;;;;;;;15.36;85.35;91537.19;5022890;28;20108;-86
2021/08/14 03:10:49;;;;;;;14.50;9.57;;;;;;;15.36;85.38;91531.94;5032375;28;20032;-84
2021/08/14 03:13:24;;;;;;;15.25;10.55;;;;;;;15.24;85.71;91522.31;5040934;28;20021;-84
2021/08/14 03:16:02;;;;;;;15.25;9.50;;;;;;;15.18;85.96;91523.66;5017977;28;20104;-85
2021/08/14 03:18:42;;;;;;;17.90;10.73;;;;;;;15.22;85.52;91525.25;5017809;28;20071;-84
2021/08/14 03:21:21;;;;;;;17.42;10.73;;;;;;;15.20;86.15;91524.09;5033260;28;20029;-83
2021/08/14 03:23:53;;;;;;;20.55;10.63;;;;;;;15.22;86.70;91520.00;5033947;28;20032;-84
2021/08/14 03:26:30;;;;;;;15.75;10.80;;;;;;;15.21;87.14;91523.00;5020376;28;20493;-84
2021/08/14 03:29:05;;;;;;;18.60;11.07;;;;;;;15.26;86.62;91526.13;5052507;28;20032;-85
2021/08/14 03:31:34;;;;;;;14.65;9.98;;;;;;;15.23;85.49;91523.41;5036252;28;20029;-84
2021/08/14 03:34:08;;;;;;;17.02;10.90;;;;;;;15.15;86.90;91526.97;5052660;28;20466;-85
2021/08/14 03:39:19;;;;;;;20.13;10.65;;;;;;;15.23;87.08;91526.81;5114988;22;20106;-86
2021/08/14 03:42:02;;;;;;;14.88;10.05;;;;;;;15.19;87.44;91520.69;5034819;28;20029;-88
2021/08/14 03:44:40;;;;;;;19.77;10.30;;;;;;;15.20;87.28;91519.59;5050266;28;20028;-88
2021/08/14 03:47:18;;;;;;;17.63;10.32;;;;;;;15.10;87.15;91520.13;5037058;28;20024;-87
2021/08/14 03:49:55;;;;;;;18.67;10.82;;;;;;;15.17;87.71;91520.28;5037769;28;20029;-89
2021/08/14 03:52:33;;;;;;;17.45;10.45;;;;;;;15.15;87.25;91516.47;5070454;28;20024;-88
2021/08/14 03:55:08;;;;;;;16.45;10.85;;;;;;;15.12;87.35;91517.91;5070353;28;20021;-88
2021/08/14 03:57:48;;;;;;;15.85;10.75;;;;;;;15.07;87.18;91520.78;5054597;28;20554;-88
2021/08/14 04:00:28;;;;;;;18.65;9.77;;;;;;;15.09;86.78;91523.84;5069826;28;20393;-88
2021/08/14 04:03:05;;;;;;;16.27;10.18;;;;;;;15.13;86.04;91524.69;5037880;28;20029;-88
2021/08/14 04:05:43;;;;;;;16.35;9.73;;;;;;;15.11;85.15;91529.50;5054292;28;20025;-87
2021/08/14 04:08:17;;;;;;;22.27;10.63;;;;;;;14.98;87.34;91530.69;5070053;28;20031;-88
2021/08/14 04:10:51;;;;;;;;;;;;;;;15.08;86.86;91532.81;5053557;28;20040;-88
2021/08/14 04:13:27;;;;;;;17.92;9.13;;;;;;;15.09;86.67;91523.84;5071922;28;19988;-87
2021/08/14 04:16:11;;;;;;;21.02;10.32;;;;;;;14.97;87.36;91516.06;5070009;28;20033;-88
2021/08/14 04:18:48;;;;;;;19.95;10.40;;;;;;;14.88;87.84;91518.13;5053804;28;20455;-87
2021/08/14 04:21:26;;;;;;;19.02;10.10;;;;;;;14.92;87.76;91518.97;5053721;28;20048;-87
2021/08/14 04:24:06;;;;;;;17.00;10.15;;;;;;;14.90;87.98;91526.41;5054260;28;20025;-87
2021/08/14 04:26:42;;;;;;;19.08;10.85;;;;;;;14.85;88.30;91509.06;5052981;28;20020;-87
2021/08/14 04:29:22;;;;;;;15.80;10.27;;;;;;;14.91;88.62;91527.91;5070124;28;20020;-88
2021/08/14 04:31:57;;;;;;;18.75;10.38;;;;;;;14.90;87.84;91515.91;5073521;28;20024;-87
2021/08/14 04:34:40;;;;;;;20.42;9.77;;;;;;;14.83;86.49;91517.25;5073807;28;20016;-88
2021/08/14 04:37:15;;;;;;;14.20;9.50;;;;;;;14.78;86.49;91509.63;5074645;28;20070;-88
2021/08/14 04:39:55;;;;;;;17.30;10.45;;;;;;;14.85;86.78;91514.28;5073463;28;20107;-88
2021/08/14 04:42:33;;;;;;;17.63;10.18;;;;;;;14.82;86.82;91513.09;5057897;28;20472;-88
2021/08/14 04:45:10;;;;;;;21.48;10.38;;;;;;;14.81;87.44;91511.59;5057277;28;20070;-87
2021/08/14 04:47:50;;;;;;;16.42;10.43;;;;;;;14.78;87.62;91509.63;5041149;28;20028;-87
2021/08/14 04:50:24;;;;;;;16.45;10.10;;;;;;;14.82;87.72;91510.47;5073261;28;20535;-88
2021/08/14 04:52:59;;;;;;;16.50;11.20;;;;;;;14.83;88.00;91508.63;5040929;28;20028;-87
2021/08/14 04:55:41;;;;;;;16.42;9.90;;;;;;;14.88;87.95;91513.63;5057511;28;20101;-88
2021/08/14 04:58:15;;;;;;;17.25;10.05;;;;;;;14.96;87.51;91504.06;5057789;28;20041;-87
2021/08/14 05:00:51;;;;;;;18.33;10.70;;;;;;;15.05;87.36;91521.16;5056987;28;20055;-88
2021/08/14 05:03:28;;;;;;;16.52;10.60;;;;;;;15.08;87.13;91514.44;5056336;28;20086;-88
2021/08/14 05:05:59;;;;;;;15.73;10.40;;;;;;;15.16;86.91;91513.53;5057026;28;20020;-88
2021/08/14 05:08:28;;;;;;;15.65;9.80;;;;;;;15.16;86.66;91517.97;5040174;28;20035;-88
2021/08/14 05:11:04;;;;;;;16.90;9.95;;;;;;;15.22;85.82;91516.63;5056383;28;20400;-88
2021/08/14 05:13:42;;;;;;;15.30;9.63;;;;;;;15.15;85.64;91519.84;5073220;28;20024;-88
2021/08/14 05:16:17;;;;;;;17.95;9.90;;;;;;;15.10;85.50;91519.38;5057224;28;20025;-87
2021/08/14 05:18:54;;;;;;;15.50;10.80;;;;;;;15.11;86.76;91515.63;5040523;28;20119;-87
2021/08/14 05:21:21;;;;;;;18.42;10.90;;;;;;;15.20;86.92;91508.34;5071246;28;20040;-87
2021/08/14 05:23:57;;;;;;;18.02;10.95;;;;;;;15.29;86.73;91517.53;5052375;28;20029;-87
2021/08/14 05:26:29;;;;;;;15.05;10.30;;;;;;;15.36;86.83;91510.94;5066517;28;20430;-89
2021/08/14 05:29:01;;;;;;;21.33;10.98;;;;;;;15.43;86.45;91521.59;5099114;28;20036;-88
2021/08/14 05:31:38;;;;;;;15.82;10.70;;;;;;;15.51;86.33;91518.78;5095825;28;20028;-88
2021/08/14 05:34:16;;;;;;;18.95;11.65;;;;;;;15.50;86.70;91522.50;5074210;28;20052;-87
2021/08/14 05:36:49;;;;;;;17.35;10.82;;;;;;;15.49;86.28;91515.72;5056159;28;20039;-87
2021/08/14 05:39:21;;;;;;;15.35;10.25;;;;;;;15.62;86.10;91526.09;5072111;28;20044;-87
2021/08/14 05:41:59;;;;;;;14.88;10.25;;;;;;;15.63;85.80;91528.41;5055645;28;20028;-87
2021/08/14 05:44:32;;;;;;;16.77;9.52;;;;;;;15.66;85.55;91516.50;5073115;28;20432;-87
2021/08/14 05:47:03;;;;;;;15.18;10.85;;;;;;;15.72;85.60;91522.97;5055657;28;20028;-87
2021/08/14 05:49:37;;;;;;;18.10;9.63;;;;;;;15.72;85.56;91522.97;5055427;28;20035;-88
2021/08/14 05:52:14;;;;;;;16.30;11.23;;;;;;;15.73;85.59;91520.03;5056095;28;20024;-88
2021/08/14 05:54:52;;;;;;;19.13;10.93;;;;;;;15.88;85.92;91522.94;5074466;28;20021;-88
2021/08/14 05:57:29;;;;;;;18.67;10.70;;;;;;;15.94;85.80;91521.56;5058363;28;20028;-89
2021/08/14 06:00:03;;;;;;;16.23;11.27;;;;;;;16.07;85.38;91519.53;5057451;28;20024;-88
2021/08/14 06:02:45;;;;;;;18.37;10.40;;;;;;;16.16;85.06;91523.47;5074064;28;20485;-87
2021/08/14 06:05:29;;;;;;;21.00;11.32;;;;;;;16.22;85.24;91527.38;5072943;28;20492;-87
2021/08/14 06:08:04;;;;;;;18.30;11.70;;;;;;;16.38;84.94;91521.25;5072329;28;20473;-87
2021/08/14 06:10:35;;;;;;;18.52;11.20;;;;;;;16.41;84.82;91525.81;5040775;28;20107;-88
2021/08/14 06:13:08;;;;;;;23.60;11.30;;;;;;;16.46;84.73;91515.75;5072725;28;20448;-87
2021/08/14 06:15:42;;;;;;;22.42;11.00;;;;;;;16.52;85.01;91520.75;5073710;28;20138;-88
2021/08/14 06:18:15;;;;;;;;;;;;;;;16.64;84.75;91518.72;5072438;28;20495;-88
2021/08/14 06:20:48;;;;;;;18.63;11.15;;;;;;;16.73;84.27;91516.59;5071181;28;19920;-88
2021/08/14 06:23:27;;;;;;;21.00;11.52;;;;;;;16.78;84.33;91512.94;5055684;28;20439;-88
2021/08/14 06:26:06;;;;;;;18.73;10.65;;;;;;;16.90;84.37;91514.66;5070764;28;20020;-87
2021/08/14 06:28:42;;;;;;;19.15;11.18;;;;;;;16.98;84.73;91518.91;5070842;28;20083;-88
2021/08/14 06:31:14;;;;;;;18.48;11.20;;;;;;;17.06;84.47;91512.63;5054544;28;20020;-88
2021/08/14 06:33:51;;;;;;;19.00;11.40;;;;;;;17.18;83.88;91514.34;5054631;28;20556;-87
2021/08/14 06:36:30;;;;;;;15.80;11.43;;;;;;;17.34;84.95;91519.44;5071851;28;20029;-87
2021/08/14 06:39:07;;;;;;;19.52;11.20;;;;;;;17.44;84.34;91519.59;5074083;28;20103;-87
2021/08/14 06:41:42;;;;;;;16.83;11.88;;;;;;;17.64;83.97;91522.13;5057672;28;20025;-87
2021/08/14 06:44:17;;;;;;;17.15;11.15;;;;;;;17.84;83.09;91518.28;5057082;28;20444;-89
2021/08/14 06:46:56;;;;;;;17.90;10.50;;;;;;;18.02;81.22;91518.50;5040225;28;20036;-87
2021/08/14 06:49:28;;;;;;;17.98;10.73;;;;;;;18.28;81.64;91524.81;5039969;28;20047;-88
2021/08/14 06:52:10;;;;;;;15.23;11.13;;;;;;;18.38;80.71;91522.31;5056083;28;20035;-88
2021/08/14 06:54:47;;;;;;;17.42;10.18;;;;;;;18.59;78.53;91513.09;5073048;28;20017;-88
2021/08/14 06:57:25;;;;;;;16.38;10.32;;;;;;;18.76;78.33;91523.09;5072209;28;20039;-87
2021/08/14 06:59:57;;;;;;;17.60;10.50;;;;;;;18.91;77.43;91521.34;5071817;28;20479;-88
2021/08/14 07:02:34;;;;;;;18.40;10.23;;;;;;;19.11;76.63;91521.88;5057915;28;20484;-87
2021/08/14 07:05:06;;;;;;;16.20;10.13;;;;;;;19.17;75.07;91524.94;5057963;28;20498;-87
2021/08/14 07:07:43;;;;;;;18.55;9.95;;;;;;;19.40;75.06;91514.16;5075539;28;20035;-87
2021/08/14 07:10:24;;;;;;;16.80;9.90;;;;;;;19.47;75.10;91511.56;5075347;28;20477;-87
2021/08/14 07:13:06;;;;;;;17.67;11.13;;;;;;;19.57;75.06;91514.25;5057808;28;20439;-87
2021/08/14 07:15:42;;;;;;;15.77;10.48;;;;;;;19.68;74.59;91510.94;5075087;28;20396;-88
2021/08/14 07:18:20;;;;;;;17.45;10.52;;;;;;;19.72;74.31;91511.75;5074055;28;20039;-88
2021/08/14 07:21:08;;;;;;;17.30;10.05;;;;;;;19.87;74.79;91508.03;5074480;28;20021;-87
2021/08/14 07:23:48;;;;;;;18.92;10.25;;;;;;;19.95;74.63;91503.53;5058734;28;20024;-88
2021/08/14 07:26:25;;;;;;;15.23;9.80;;;;;;;19.97;74.16;91506.59;5073486;28;20024;-87
2021/08/14 07:28:52;;;;;;;16.85;10.20;;;;;;;20.26;70.94;91512.75;5058817;28;20028;-88
2021/08/14 07:31:25;;;;;;;19.90;9.90;;;;;;;20.28;71.69;91505.19;5072700;28;20036;-88
2021/08/14 07:34:02;;;;;;;15.75;9.75;;;;;;;20.40;70.86;91507.50;5057027;28;20020;-88
2021/08/14 07:36:39;;;;;;;15.20;9.23;;;;;;;20.53;72.76;91498.13;5073815;28;20031;-88
2021/08/14 07:39:12;;;;;;;16.70;10.05;;;;;;;20.51;71.64;91502.25;5072260;28;20028;-87
2021/08/14 07:41:45;;;;;;;17.30;10.20;;;;;;;20.59;69.04;91498.47;5056620;28;20032;-87
2021/08/14 07:44:13;;;;;;;13.37;9.53;;;;;;;20.71;70.51;91489.44;5073133;28;20025;-87
2021/08/14 07:47:03;;;;;;;19.58;10.20;;;;;;;20.85;68.78;91493.97;5056738;28;20021;-88
2021/08/14 07:49:35;;;;;;;17.92;9.98;;;;;;;20.84;70.44;91497.78;5058389;28;20492;-90
2021/08/14 07:52:14;;;;;;;17.17;10.25;;;;;;;20.91;69.17;91487.19;5073413;28;20400;-88
2021/08/14 07:54:51;;;;;;;18.88;10.43;;;;;;;21.14;69.50;91484.16;5075221;28;20025;-88
2021/08/14 07:57:28;;;;;;;22.20;10.02;;;;;;;21.20;69.12;91485.28;5058636;28;20024;-88
2021/08/14 08:00:13;;;;;;;19.30;10.43;;;;;;;21.24;69.58;91486.06;5073379;28;20111;-88
2021/08/14 08:02:50;;;;;;;17.27;9.70;;;;;;;21.32;68.12;91484.16;5059003;28;20024;-88
2021/08/14 08:05:26;;;;;;;14.80;10.25;;;;;;;21.39;68.49;91474.34;5076764;28;20021;-88
2021/08/14 08:08:02;;;;;;;14.65;9.88;;;;;;;21.49;68.27;91483.41;5045789;28;20025;-88
2021/08/14 08:10:42;;;;;;;19.00;10.07;;;;;;;21.51;66.35;91477.72;5061349;28;20058;-88
2021/08/14 08:13:16;;;;;;;18.20;9.80;;;;;;;21.55;67.05;91478.47;5061437;28;20017;-88
2021/08/14 08:15:55;;;;;;;19.55;10.10;;;;;;;21.63;68.24;91470.13;5062088;28;20020;-89
2021/08/14 08:18:29;;;;;;;21.67;9.85;;;;;;;21.74;65.11;91475.41;5060073;28;20029;-88
2021/08/14 08:21:05;;;;;;;14.30;9.60;;;;;;;21.88;65.40;91475.38;5061321;28;20488;-88
2021/08/14 08:23:39;;;;;;;19.60;9.60;;;;;;;22.03;66.95;91472.66;5077714;28;20029;-88
2021/08/14 08:26:14;;;;;;;17.20;9.27;;;;;;;22.06;64.33;91483.25;5068655;28;20024;-88
2021/08/14 08:28:49;;;;;;;16.60;9.10;;;;;;;21.89;64.84;91468.91;5057175;28;20057;-88
2021/08/14 08:31:25;;;;;;;19.45;10.13;;;;;;;22.04;64.45;91474.16;5056805;28;20089;-88
2021/08/14 08:34:00;;;;;;;17.20;9.57;;;;;;;22.10;64.47;91469.97;5055619;28;20020;-88
2021/08/14 08:36:34;;;;;;;16.55;9.32;;;;;;;22.01;64.30;91469.63;5038051;28;20025;-88
2021/08/14 08:39:08;;;;;;;;;;;;;;;22.15;65.37;91473.00;5040339;28;20039;-88
2021/08/14 08:41:39;;;;;;;15.32;9.27;;;;;;;22.28;67.61;91467.28;5039383;28;19912;-88
2021/08/14 08:44:13;;;;;;;15.88;9.65;;;;;;;22.42;65.52;91467.94;5038103;28;20053;-88
2021/08/14 08:46:49;;;;;;;13.93;9.13;;;;;;;22.50;66.22;91470.56;5023575;28;20021;-87
2021/08/14 08:49:30;;;;;;;19.20;10.32;;;;;;;22.66;65.94;91468.22;5063741;28;20024;-89
2021/08/14 08:52:06;;;;;;;20.30;9.45;;;;;;;22.69;65.12;91464.78;5063838;28;20032;-90
2021/08/14 08:54:43;;;;;;;17.58;8.88;;;;;;;22.77;66.07;91471.53;5068124;28;20036;-89
2021/08/14 08:57:23;;;;;;;18.23;9.43;;;;;;;22.85;65.87;91464.28;5054700;28;20021;-88
2021/08/14 09:00:03;;;;;;;16.63;9.50;;;;;;;22.93;63.33;91472.97;5022364;28;20503;-88
2021/08/14 09:02:41;;;;;;;15.20;9.40;;;;;;;22.97;64.12;91471.81;5038172;28;20119;-88
2021/08/14 09:05:19;;;;;;;22.30;9.73;;;;;;;23.13;64.65;91472.06;5054150;28;20025;-88
2021/08/14 09:07:56;;;;;;;16.33;9.55;;;;;;;23.22;63.66;91468.22;5056534;28;20025;-88
2021/08/14 09:10:34;;;;;;;18.65;9.02;;;;;;;23.20;62.58;91457.97;5039338;28;20025;-88
2021/08/14 09:13:39;;;;;;;14.65;9.07;;;;;;;23.29;65.84;91468.91;5020509;28;20025;-88
2021/08/14 09:16:26;;;;;;;;;;;;;;;23.43;64.21;91456.63;5044326;28;20037;-88
2021/08/14 09:19:08;;;;;;;18.38;9.52;;;;;;;23.46;60.21;91459.25;5055414;28;19909;-89
2021/08/14 09:21:47;;;;;;;17.77;8.95;;;;;;;23.52;62.64;91454.25;5056434;28;20035;-88
2021/08/14 09:24:38;;;;;;;16.98;8.65;;;;;;;23.58;60.57;91448.13;5040240;28;20443;-88
2021/08/14 09:27:15;;;;;;;17.33;9.00;;;;;;;23.57;62.17;91438.63;5056550;28;20048;-89
2021/08/14 09:29:56;;;;;;;17.52;9.10;;;;;;;23.75;61.26;91451.78;5058835;28;20059;-88
2021/08/14 09:32:26;;;;;;;18.27;9.05;;;;;;;23.71;60.69;91445.75;5074584;28;20025;-88
2021/08/14 09:35:07;;;;;;;17.73;8.80;;;;;;;23.87;61.39;91447.84;5044314;28;20032;-88
2021/08/14 09:37:47;;;;;;;17.55;9.23;;;;;;;23.90;62.44;91443.66;5135754;22;20032;-85
2021/08/14 09:40:23;;;;;;;16.90;9.27;;;;;;;24.03;62.19;91439.31;5017724;28;20053;-86
2021/08/14 09:42:58;;;;;;;17.33;8.95;;;;;;;24.14;61.22;91445.25;5003273;28;20030;-85
2021/08/14 09:45:38;;;;;;;14.93;9.35;;;;;;;24.15;59.74;91436.13;5019233;28;20091;-84
2021/08/14 09:48:33;;;;;;;16.65;8.68;;;;;;;24.16;59.98;91437.63;5016309;28;20446;-87
2021/08/14 09:51:06;;;;;;;;;;;;;;;24.07;58.82;91438.13;4996685;28;20027;-85
2021/08/14 09:53:45;;;;;;;21.80;8.93;;;;;;;24.19;58.61;91431.50;4980897;28;19937;-85
2021/08/14 09:56:26;;;;;;;13.07;8.10;;;;;;;24.08;58.34;91428.97;4966353;28;20023;-84
2021/08/14 09:59:07;;;;;;;20.92;8.77;;;;;;;24.23;58.99;91426.88;4981549;28;20027;-86
2021/08/14 10:01:43;;;;;;;17.77;8.80;;;;;;;24.28;58.70;91423.78;4967253;28;20065;-86
2021/08/14 10:04:22;;;;;;;16.10;9.18;;;;;;;24.47;60.50;91424.31;4990752;28;20026;-83
2021/08/14 10:06:57;;;;;;;19.17;8.52;;;;;;;24.65;60.06;91416.81;5000868;28;20039;-84
2021/08/14 10:09:35;;;;;;;21.30;8.88;;;;;;;24.79;58.35;91410.53;4976965;28;20034;-84
2021/08/14 10:12:09;;;;;;;18.42;8.70;;;;;;;24.87;58.96;91408.50;4963055;28;20031;-85
2021/08/14 10:14:47;;;;;;;21.42;9.20;;;;;;;24.96;58.83;91406.84;4960685;28;20023;-85
2021/08/14 10:17:24;;;;;;;18.35;8.75;;;;;;;24.78;56.20;91404.47;4977115;28;20031;-85
2021/08/14 10:20:03;;;;;;;23.25;9.05;;;;;;;25.00;56.55;91404.13;4975807;28;20394;-85
2021/08/14 10:22:38;;;;;;;24.20;8.70;;;;;;;25.08;57.71;91407.41;4976255;28;20031;-85
2021/08/14 10:25:17;;;;;;;17.50;9.10;;;;;;;25.24;57.41;91392.31;4976293;28;20062;-85
2021/08/14 10:28:06;;;;;;;17.73;8.80;;;;;;;25.35;57.12;91394.81;4994363;28;20034;-84
2021/08/14 10:30:53;;;;;;;15.48;8.57;;;;;;;25.43;57.66;91395.41;5010909;28;20026;-84
2021/08/14 10:33:47;;;;;;;;;;;;;;;;;;;;;
2021/08/14 10:36:28;;;;;;;21.85;9.15;;;;;;;25.38;57.94;91385.97;4995982;28;20030;-84
2021/08/14 10:38:57;;;;;;;21.05;9.27;;;;;;;25.42;53.62;91386.66;4994804;28;20061;-84
2021/08/14 10:41:48;;;;;;;13.43;8.43;;;;;;;25.56;55.41;91395.59;4993412;28;20018;-84
2021/08/14 10:44:39;;;;;;;18.90;8.15;;;;;;;25.76;53.02;91388.34;4993672;28;20026;-85
2021/08/14 10:47:43;;;;;;;19.05;8.63;;;;;;;25.70;54.24;91389.97;4993510;28;20035;-84
2021/08/14 10:50:35;;;;;;;16.48;8.48;;;;;;;25.99;52.29;91390.94;4997119;28;20030;-87
2021/08/14 10:53:26;;;;;;;14.85;8.45;;;;;;;26.10;52.97;91384.66;5005801;28;20506;-84
2021/08/14 10:56:04;;;;;;;21.60;8.18;;;;;;;26.37;53.23;91384.47;4995231;28;20034;-84
2021/08/14 10:58:51;;;;;;;19.48;8.32;;;;;;;26.43;51.66;91372.88;4994716;28;20022;-84
2021/08/14 11:01:28;;;;;;;19.67;8.57;;;;;;;26.36;49.92;91377.59;5008113;28;20530;-84
2021/08/14 11:04:24;;;;;;;21.02;8.25;;;;;;;26.28;52.22;91366.31;4993853;28;20113;-85
2021/08/14 11:06:58;;;;;;;24.10;8.88;;;;;;;26.59;52.51;91369.50;5008621;28;20490;-84
2021/08/14 11:09:35;;;;;;;19.65;8.48;;;;;;;26.70;51.14;91372.66;4992542;28;20030;-85
2021/08/14 11:12:11;;;;;;;19.13;7.93;;;;;;;26.88;51.68;91361.56;4992646;28;20026;-85
2021/08/14 11:14:50;;;;;;;19.77;8.35;;;;;;;26.90;50.34;91358.47;5009586;28;20040;-85
2021/08/14 11:17:28;;;;;;;20.02;8.05;;;;;;;26.96;48.98;91364.78;4993310;28;20156;-85
2021/08/14 11:20:04;;;;;;;17.08;7.97;;;;;;;26.78;50.74;91361.81;4992975;28;20026;-85
2021/08/14 11:22:49;;;;;;;22.83;9.25;;;;;;;26.92;50.16;91358.78;5009159;28;20027;-84
2021/08/14 11:25:28;;;;;;;15.40;8.00;;;;;;;26.81;48.76;91355.63;5008903;28;20033;-86
2021/08/14 11:28:07;;;;;;;21.58;8.40;;;;;;;26.69;48.98;91349.78;5008324;28;20034;-84
2021/08/14 11:31:07;;;;;;;20.75;8.40;;;;;;;26.60;49.30;91360.28;4992943;28;20034;-84
2021/08/14 11:33:48;;;;;;;17.52;8.50;;;;;;;26.61;49.02;91351.13;5007366;28;20541;-85
2021/08/14 11:36:31;;;;;;;18.80;8.60;;;;;;;26.73;48.75;91347.03;4992970;28;20121;-85
2021/08/14 11:39:17;;;;;;;20.20;7.95;;;;;;;26.88;50.25;91348.19;4994306;28;20040;-84
2021/08/14 11:42:00;;;;;;;17.33;7.93;;;;;;;26.53;48.71;91349.75;4997411;28;20045;-84
2021/08/14 11:44:40;;;;;;;20.40;7.70;;;;;;;26.74;50.05;91342.44;4997431;28;20101;-85
2021/08/14 11:47:20;;;;;;;18.88;8.32;;;;;;;26.82;48.77;91343.75;4997420;28;20042;-85
2021/08/14 11:50:00;;;;;;;23.08;8.57;;;;;;;27.01;49.65;91348.25;4980669;28;20049;-86
2021/08/14 11:52:36;;;;;;;25.80;8.32;;;;;;;27.25;48.19;91338.16;4996806;28;20026;-84
2021/08/14 11:55:12;;;;;;;21.17;7.53;;;;;;;27.31;50.24;91335.69;5013446;28;20025;-86
2021/08/14 11:57:51;;;;;;;22.50;8.32;;;;;;;27.31;47.78;91341.03;5013745;28;20510;-86
2021/08/14 12:00:32;;;;;;;27.45;8.77;;;;;;;27.35;48.56;91334.44;4997737;28;20030;-84
2021/08/14 12:03:14;;;;;;;25.77;9.10;;;;;;;27.41;47.97;91332.75;4998139;28;20026;-85
2021/08/14 12:05:46;;;;;;;21.80;8.25;;;;;;;27.46;47.63;91336.84;4998691;28;20033;-85
2021/08/14 12:08:34;;;;;;;27.77;8.65;;;;;;;27.65;48.51;91332.50;4998777;28;20053;-87
2021/08/14 12:11:09;;;;;;;26.70;8.13;;;;;;;27.75;46.59;91336.84;5014631;28;20069;-85
2021/08/14 12:13:48;;;;;;;19.33;7.80;;;;;;;27.84;47.40;91331.59;4985203;28;20030;-86